Time;durP1;ratioP1;P1;durP2;ratioP2;P2;SDS_P1;SDS_P2;PMS_P1;PMS_P2;Temp;Humidity;BMP_temperature;BMP_pressure;BME280_temperature;BME280_humidity;BME280_pressure;Samples;Min_cycle;Max_cycle;Signal;HPM_P1;HPM_P2
2021/05/26 00:00:17;;;;;;;8.93;8.23;;;;;;;11.23;70.01;100619.31;5115605;28;20206;-63
2021/05/26 00:02:43;;;;;;;8.47;7.77;;;;;;;11.07;70.65;100621.00;5097334;28;20421;-62
2021/05/26 00:05:09;;;;;;;8.83;7.93;;;;;;;10.90;70.76;100620.91;5097410;28;20177;-63
2021/05/26 00:07:34;;;;;;;8.47;7.77;;;;;;;11.01;70.76;100613.13;5097740;28;20171;-63
2021/05/26 00:09:59;;;;;;;7.97;7.27;;;;;;;10.89;70.66;100604.38;5097369;28;20719;-63
2021/05/26 00:12:25;;;;;;;8.50;7.80;;;;;;;10.77;71.18;100614.72;5097204;28;20176;-63
2021/05/26 00:14:50;;;;;;;7.53;6.93;;;;;;;11.18;69.94;100610.63;5102918;28;20257;-63
2021/05/26 00:17:15;;;;;;;8.13;7.40;;;;;;;11.19;69.74;100614.97;5121574;28;20250;-63
2021/05/26 00:19:43;;;;;;;8.40;7.60;;;;;;;11.14;69.85;100608.88;5120882;28;20167;-62
2021/05/26 00:22:09;;;;;;;8.00;7.23;;;;;;;11.16;70.04;100601.91;5121505;28;20254;-62
2021/05/26 00:24:34;;;;;;;8.83;8.13;;;;;;;10.92;70.07;100598.31;5121094;28;20461;-62
2021/05/26 00:26:59;;;;;;;8.43;7.63;;;;;;;11.07;70.38;100602.75;5116288;28;20211;-62
2021/05/26 00:29:24;;;;;;;8.37;7.60;;;;;;;11.34;69.18;100598.50;5103531;28;20217;-62
2021/05/26 00:31:50;;;;;;;9.07;8.27;;;;;;;11.26;70.56;100593.28;5117325;28;20495;-62
2021/05/26 00:34:15;;;;;;;8.57;7.87;;;;;;;11.03;70.44;100586.19;5102516;28;20281;-63
2021/05/26 00:36:40;;;;;;;9.03;8.33;;;;;;;11.04;70.46;100587.06;5100951;28;20222;-62
2021/05/26 00:39:06;;;;;;;8.43;7.60;;;;;;;11.21;70.19;100579.31;5100461;28;20173;-62
2021/05/26 00:41:32;;;;;;;9.17;8.33;;;;;;;10.88;70.56;100581.75;5100227;28;20294;-62
2021/05/26 00:43:57;;;;;;;8.97;8.27;;;;;;;10.88;71.21;100580.88;5111641;28;20258;-63
2021/05/26 00:46:23;;;;;;;8.63;7.93;;;;;;;10.66;72.06;100580.75;5102684;28;20195;-63
2021/05/26 00:48:49;;;;;;;8.90;8.00;;;;;;;11.11;70.82;100579.28;5100230;28;20246;-63
2021/05/26 00:51:14;;;;;;;9.60;8.80;;;;;;;11.11;70.93;100581.03;5100421;28;20354;-62
2021/05/26 00:53:39;;;;;;;8.73;7.93;;;;;;;10.90;71.65;100576.56;5099398;28;20164;-63
2021/05/26 00:56:08;;;;;;;9.27;8.50;;;;;;;11.11;70.13;100576.66;5100134;28;20176;-63
2021/05/26 00:58:34;;;;;;;8.77;7.97;;;;;;;10.58;72.59;100577.22;5115788;28;20491;-63
2021/05/26 01:00:59;;;;;;;9.97;9.07;;;;;;;10.72;72.33;100575.56;5119948;28;20437;-63
2021/05/26 01:03:25;;;;;;;10.27;9.37;;;;;;;10.63;72.69;100579.88;5119855;28;20273;-64
2021/05/26 01:05:51;;;;;;;9.70;8.80;;;;;;;10.84;71.48;100574.78;5120189;28;20438;-63
2021/05/26 01:08:16;;;;;;;11.33;10.23;;;;;;;11.27;70.18;100571.50;5120394;28;20468;-63
2021/05/26 01:10:41;;;;;;;10.23;9.33;;;;;;;11.06;70.80;100567.94;5120439;28;20174;-63
2021/05/26 01:13:08;;;;;;;10.80;9.90;;;;;;;10.82;72.58;100575.66;5101365;28;20175;-63
2021/05/26 01:15:33;;;;;;;11.40;10.30;;;;;;;10.94;72.19;100576.56;5100322;28;20200;-62
2021/05/26 01:18:18;;;;;;;11.60;10.60;;;;;;;11.19;71.08;100574.09;5099441;28;20425;-62
2021/05/26 01:20:44;;;;;;;11.90;10.60;;;;;;;11.09;71.79;100567.94;5099847;28;20186;-63
2021/05/26 01:23:09;;;;;;;11.23;10.23;;;;;;;10.63;71.78;100565.09;5099641;28;20414;-62
2021/05/26 01:25:34;;;;;;;11.53;10.33;;;;;;;11.03;71.69;100570.53;5100273;28;21609;-63
2021/05/26 01:27:59;;;;;;;12.83;11.63;;;;;;;11.04;72.39;100571.41;5117479;28;20228;-62
2021/05/26 01:30:25;;;;;;;13.43;12.23;;;;;;;10.91;72.36;100567.88;5099550;28;20202;-62
2021/05/26 01:32:51;;;;;;;14.60;13.30;;;;;;;10.94;72.26;100566.13;5099238;28;20168;-63
2021/05/26 01:35:17;;;;;;;12.50;11.40;;;;;;;11.08;71.92;100557.50;5099548;28;20187;-63
2021/05/26 01:37:46;;;;;;;13.40;12.10;;;;;;;11.23;71.79;100556.69;5099104;28;20449;-63
2021/05/26 01:40:14;;;;;;;13.77;12.40;;;;;;;11.12;71.80;100559.25;5099525;28;20651;-63
2021/05/26 01:42:39;;;;;;;15.87;14.27;;;;;;;11.27;70.81;100561.97;5099475;28;20506;-63
2021/05/26 01:45:07;;;;;;;15.40;13.90;;;;;;;11.28;70.92;100554.97;5100071;28;20457;-62
2021/05/26 01:47:33;;;;;;;13.70;12.40;;;;;;;10.90;72.65;100560.91;5099150;28;20641;-63
2021/05/26 01:49:59;;;;;;;14.30;12.90;;;;;;;11.08;71.71;100562.72;5119640;28;20544;-63
2021/05/26 01:52:24;;;;;;;14.80;13.27;;;;;;;11.48;70.55;100564.63;5119915;28;20164;-63
2021/05/26 01:54:50;;;;;;;14.13;12.83;;;;;;;11.49;70.60;100555.91;5119633;28;20466;-62
2021/05/26 01:57:15;;;;;;;16.13;14.63;;;;;;;11.15;71.42;100555.81;5119473;28;20194;-62
2021/05/26 01:59:41;;;;;;;21.77;19.47;;;;;;;11.26;70.86;100551.50;5109529;28;20199;-62
2021/05/26 02:02:06;;;;;;;16.77;15.07;;;;;;;11.77;69.62;100556.84;5098848;28;20179;-64
2021/05/26 02:04:33;;;;;;;16.10;14.60;;;;;;;11.46;70.26;100549.84;5099010;28;20225;-62
2021/05/26 02:07:07;;;;;;;15.23;13.80;;;;;;;11.36;70.87;100555.88;5100903;28;20172;-62
2021/05/26 02:09:33;;;;;;;16.70;15.00;;;;;;;11.38;71.25;100555.88;5117475;28;20460;-63
2021/05/26 02:14:42;;;;;;;16.83;15.23;;;;;;;11.18;71.58;100540.19;5098715;28;20430;-63
2021/05/26 02:17:07;;;;;;;16.13;14.43;;;;;;;11.51;70.71;100538.53;5098691;28;20407;-62
2021/05/26 02:19:33;;;;;;;15.90;14.30;;;;;;;11.65;70.37;100539.44;5108405;28;20175;-63
2021/05/26 02:21:58;;;;;;;17.20;15.60;;;;;;;11.66;69.96;100540.31;5118932;28;20172;-62
2021/05/26 02:24:23;;;;;;;15.93;14.43;;;;;;;11.36;71.02;100539.38;5110266;28;20175;-63
2021/05/26 02:26:49;;;;;;;16.20;14.70;;;;;;;11.33;71.75;100542.84;5098446;28;20179;-64
2021/05/26 02:29:14;;;;;;;16.70;15.17;;;;;;;11.43;70.72;100543.72;5098386;28;20207;-63
2021/05/26 02:31:39;;;;;;;16.63;15.07;;;;;;;11.35;70.82;100538.50;5098655;28;20179;-62
2021/05/26 02:34:05;;;;;;;16.23;14.63;;;;;;;11.11;71.69;100534.94;5098427;28;20179;-63
2021/05/26 02:36:30;;;;;;;16.53;14.53;;;;;;;11.65;70.33;100530.72;5098333;28;20164;-63
2021/05/26 02:38:55;;;;;;;15.60;14.10;;;;;;;11.63;69.80;100533.34;5103158;28;20446;-63
2021/05/26 02:41:21;;;;;;;15.20;13.77;;;;;;;11.40;71.06;100528.06;5118597;28;20175;-62
2021/05/26 02:43:46;;;;;;;14.90;13.40;;;;;;;11.27;71.37;100535.84;5118835;28;20178;-63
2021/05/26 02:46:11;;;;;;;15.00;13.70;;;;;;;11.49;70.41;100530.69;5110841;28;20535;-63
2021/05/26 02:48:37;;;;;;;15.27;13.60;;;;;;;11.14;71.09;100526.25;5098161;28;20219;-62
2021/05/26 02:51:02;;;;;;;15.67;14.07;;;;;;;11.36;70.79;100536.75;5098274;28;20452;-63
2021/05/26 02:53:27;;;;;;;14.50;13.00;;;;;;;11.57;70.35;100528.13;5098537;28;20199;-63
2021/05/26 02:55:53;;;;;;;15.07;13.67;;;;;;;11.55;70.34;100527.22;5098242;28;20438;-63
2021/05/26 02:58:18;;;;;;;14.83;13.33;;;;;;;11.06;71.75;100530.56;5098117;28;20156;-63
2021/05/26 03:00:43;;;;;;;14.77;13.43;;;;;;;11.39;70.76;100528.91;5117704;28;20533;-64
2021/05/26 03:03:09;;;;;;;14.50;13.10;;;;;;;11.41;70.44;100535.91;5118375;28;20179;-64
2021/05/26 03:05:34;;;;;;;13.50;12.30;;;;;;;11.28;70.65;100539.31;5118474;28;20434;-63
2021/05/26 03:07:59;;;;;;;13.43;12.23;;;;;;;11.20;71.12;100533.22;5118644;28;20170;-63
2021/05/26 03:10:25;;;;;;;14.17;12.87;;;;;;;11.22;70.89;100534.09;5118283;28;20179;-62
2021/05/26 03:12:50;;;;;;;13.80;12.40;;;;;;;11.20;70.91;100535.81;5117338;28;20179;-63
2021/05/26 03:15:17;;;;;;;14.87;13.37;;;;;;;11.44;70.82;100524.59;5116524;28;20607;-62
2021/05/26 03:17:42;;;;;;;13.83;12.43;;;;;;;11.28;71.25;100529.78;5098913;28;20176;-64
2021/05/26 03:20:12;;;;;;;13.20;12.10;;;;;;;10.79;73.33;100527.81;5111714;28;20424;-63
2021/05/26 03:22:38;;;;;;;14.00;12.60;;;;;;;11.35;71.53;100532.41;5118194;28;20421;-62
2021/05/26 03:25:05;;;;;;;14.90;13.47;;;;;;;11.25;71.81;100523.66;5118178;28;20766;-62
2021/05/26 03:27:35;;;;;;;15.23;13.43;;;;;;;11.35;71.81;100524.56;5118250;28;20549;-62
2021/05/26 03:30:04;;;;;;;14.20;12.90;;;;;;;11.28;72.36;100526.28;5118401;28;20482;-62
2021/05/26 03:32:30;;;;;;;14.80;13.30;;;;;;;11.15;72.72;100522.78;5117198;28;20439;-63
2021/05/26 03:34:55;;;;;;;15.60;13.43;;;;;;;11.24;72.06;100516.69;5117475;28;20413;-63
2021/05/26 03:37:21;;;;;;;15.20;13.70;;;;;;;11.14;72.41;100522.78;5103036;28;20168;-64
2021/05/26 03:39:46;;;;;;;16.07;14.60;;;;;;;11.20;72.79;100515.81;5097646;28;20164;-63
2021/05/26 03:42:11;;;;;;;16.43;14.50;;;;;;;11.21;71.88;100508.88;5097465;28;20247;-63
2021/05/26 03:44:37;;;;;;;16.20;14.70;;;;;;;11.08;72.47;100506.22;5098255;28;20529;-64
2021/05/26 03:47:02;;;;;;;16.07;14.27;;;;;;;11.25;71.45;100513.22;5097582;28;20183;-64
2021/05/26 03:49:27;;;;;;;16.47;14.83;;;;;;;11.37;71.80;100517.63;5098409;28;20203;-64
2021/05/26 03:51:53;;;;;;;16.97;15.27;;;;;;;11.22;71.38;100513.22;5111164;28;20235;-63
2021/05/26 03:54:18;;;;;;;16.93;15.17;;;;;;;11.28;71.40;100515.84;5121836;28;20183;-63
2021/05/26 03:56:43;;;;;;;16.97;15.30;;;;;;;11.20;71.76;100515.81;5112843;28;20184;-64
2021/05/26 03:59:09;;;;;;;16.23;14.73;;;;;;;11.55;70.31;100520.25;5117041;28;20493;-63
2021/05/26 04:01:35;;;;;;;16.80;13.90;;;;;;;11.20;71.24;100515.81;5119985;28;20168;-62
2021/05/26 04:04:01;;;;;;;16.70;14.87;;;;;;;11.32;70.75;100519.34;5101156;28;20164;-63
2021/05/26 04:06:26;;;;;;;17.40;15.70;;;;;;;11.59;70.05;100514.16;5101372;28;20413;-63
2021/05/26 04:08:52;;;;;;;15.93;14.43;;;;;;;11.20;71.05;100517.56;5101051;28;20211;-62
2021/05/26 04:11:18;;;;;;;16.00;14.50;;;;;;;11.19;70.74;100513.19;5103710;28;20182;-63
2021/05/26 04:13:43;;;;;;;16.63;15.07;;;;;;;11.29;70.98;100517.59;5120882;28;20417;-63
2021/05/26 04:16:08;;;;;;;14.70;13.20;;;;;;;11.38;69.64;100507.19;5121344;27;20191;-62
2021/05/26 04:18:33;;;;;;;15.17;13.77;;;;;;;11.60;69.58;100512.44;5114776;28;20204;-63
2021/05/26 04:20:59;;;;;;;15.50;13.10;;;;;;;11.55;69.11;100512.44;5101117;28;20243;-63
2021/05/26 04:23:24;;;;;;;14.50;13.00;;;;;;;11.48;69.40;100504.59;5100805;28;20164;-63
2021/05/26 04:25:51;;;;;;;13.90;12.50;;;;;;;11.68;68.89;100507.25;5100704;28;20224;-63
2021/05/26 04:28:21;;;;;;;16.13;13.10;;;;;;;12.29;66.08;100495.94;5101244;28;20431;-64
2021/05/26 04:30:47;;;;;;;13.87;12.57;;;;;;;11.99;67.03;100502.94;5100613;28;20491;-63
2021/05/26 04:33:13;;;;;;;14.60;13.07;;;;;;;12.37;66.01;100495.94;5105778;28;20486;-63
2021/05/26 04:35:39;;;;;;;14.50;13.20;;;;;;;11.44;68.26;100495.88;5105855;28;20436;-63
2021/05/26 04:38:04;;;;;;;14.00;12.73;;;;;;;11.85;66.75;100494.19;5116041;27;20722;-63
2021/05/26 04:40:30;;;;;;;14.50;13.00;;;;;;;11.74;68.29;100495.03;5119408;28;20194;-63
2021/05/26 04:42:55;;;;;;;16.13;13.10;;;;;;;12.10;66.16;100482.03;5121271;28;20163;-63
2021/05/26 04:45:20;;;;;;;14.37;12.97;;;;;;;12.11;66.42;100486.41;5118721;28;20191;-63
2021/05/26 04:47:46;;;;;;;16.30;13.93;;;;;;;12.01;67.11;100495.97;5115924;28;20191;-63
2021/05/26 04:50:12;;;;;;;13.77;12.43;;;;;;;11.38;68.45;100504.56;5100132;28;20244;-63
2021/05/26 04:52:37;;;;;;;15.50;12.13;;;;;;;11.63;67.33;100494.16;5100064;28;20187;-63
2021/05/26 04:55:03;;;;;;;18.50;13.33;;;;;;;11.60;67.96;100494.19;5100768;28;20227;-63
2021/05/26 04:57:28;;;;;;;14.57;13.17;;;;;;;11.71;67.68;100495.03;5101541;28;20182;-63
2021/05/26 04:59:54;;;;;;;13.10;12.00;;;;;;;11.94;66.85;100495.09;5100679;28;20184;-63
2021/05/26 05:02:19;;;;;;;14.37;12.97;;;;;;;12.13;66.26;100484.63;5100508;28;20484;-66
2021/05/26 05:04:44;;;;;;;13.17;11.90;;;;;;;12.68;64.32;100483.66;5107484;28;20234;-63
2021/05/26 05:07:09;;;;;;;11.77;10.57;;;;;;;14.35;57.93;100481.72;5100726;28;20195;-64
2021/05/26 05:09:35;;;;;;;11.90;10.80;;;;;;;14.18;58.14;100479.25;5104098;28;20212;-62
2021/05/26 05:12:01;;;;;;;11.60;10.47;;;;;;;13.50;59.25;100485.91;5106631;28;20184;-62
2021/05/26 05:14:26;;;;;;;10.80;9.80;;;;;;;13.12;61.06;100485.22;5102468;28;20523;-63
2021/05/26 05:16:51;;;;;;;13.70;12.30;;;;;;;12.69;62.94;100490.63;5098924;28;20449;-63
2021/05/26 05:19:17;;;;;;;12.07;10.97;;;;;;;12.85;62.82;100490.56;5108389;28;20182;-62
2021/05/26 05:21:42;;;;;;;11.23;10.13;;;;;;;12.77;63.03;100488.88;5113054;28;20569;-62
2021/05/26 05:24:08;;;;;;;12.97;11.77;;;;;;;12.56;63.67;100496.78;5099938;28;20270;-62
2021/05/26 05:26:34;;;;;;;11.83;10.83;;;;;;;12.74;63.08;100494.09;5099334;28;20294;-62
2021/05/26 05:28:59;;;;;;;12.83;11.63;;;;;;;13.16;61.44;100477.34;5099540;28;20227;-63
2021/05/26 05:31:25;;;;;;;11.07;9.97;;;;;;;15.48;53.63;100476.84;5098933;28;20183;-63
2021/05/26 05:33:50;;;;;;;14.73;10.30;;;;;;;15.98;51.70;100463.81;5099840;28;20530;-63
2021/05/26 05:36:15;;;;;;;10.57;9.53;;;;;;;16.22;51.20;100455.50;5103328;28;20183;-62
2021/05/26 05:38:40;;;;;;;9.87;9.07;;;;;;;16.56;51.03;100454.88;5099524;28;20175;-64
2021/05/26 05:41:06;;;;;;;11.03;10.03;;;;;;;15.56;53.24;100460.09;5103440;28;20455;-62
2021/05/26 05:43:31;;;;;;;10.30;9.50;;;;;;;16.47;51.61;100461.19;5119616;28;20555;-64
2021/05/26 05:45:57;;;;;;;11.47;10.40;;;;;;;15.26;53.57;100465.78;5111700;28;20478;-64
2021/05/26 05:48:22;;;;;;;11.43;10.53;;;;;;;14.70;55.82;100463.00;5110102;27;20199;-63
2021/05/26 05:50:47;;;;;;;12.23;11.03;;;;;;;13.57;58.60;100465.78;5107964;27;20184;-62
2021/05/26 05:53:13;;;;;;;12.00;11.00;;;;;;;14.90;55.02;100472.41;5104746;28;20188;-63
2021/05/26 05:55:39;;;;;;;20.30;11.20;;;;;;;13.90;58.32;100469.03;5099341;28;20267;-62
2021/05/26 05:58:04;;;;;;;12.60;11.30;;;;;;;14.08;57.16;100466.22;5099667;28;20408;-63
2021/05/26 06:00:32;;;;;;;11.90;10.97;;;;;;;13.90;57.83;100466.41;5121214;27;20198;-62
2021/05/26 06:02:57;;;;;;;11.57;10.57;;;;;;;13.58;58.72;100457.91;5118295;27;20666;-62
2021/05/26 06:05:23;;;;;;;12.67;11.23;;;;;;;13.99;57.93;100461.09;5140223;27;20420;-61
2021/05/26 06:07:48;;;;;;;12.77;11.67;;;;;;;13.04;61.11;100444.25;5132040;27;20266;-61
2021/05/26 06:10:14;;;;;;;12.57;11.47;;;;;;;13.33;60.02;100446.72;5108291;28;20218;-63
2021/05/26 06:12:39;;;;;;;14.87;11.93;;;;;;;13.48;59.59;100451.88;5099908;28;20194;-62
2021/05/26 06:15:05;;;;;;;13.33;12.23;;;;;;;13.36;60.17;100451.97;5108217;28;20204;-63
2021/05/26 06:17:31;;;;;;;12.70;11.40;;;;;;;15.76;53.41;100436.13;5126829;27;20180;-62
2021/05/26 06:19:56;;;;;;;11.90;10.70;;;;;;;16.37;51.42;100439.44;5098744;28;20271;-63
2021/05/26 06:22:21;;;;;;;11.27;10.23;;;;;;;14.87;55.08;100449.69;5098902;28;20275;-63
2021/05/26 06:24:47;;;;;;;11.57;10.47;;;;;;;14.89;55.12;100432.16;5114825;28;20618;-63
2021/05/26 06:27:12;;;;;;;11.77;10.70;;;;;;;14.10;57.81;100438.25;5118958;28;20556;-64
2021/05/26 06:29:37;;;;;;;12.90;11.80;;;;;;;14.10;57.40;100445.28;5114388;28;20299;-64
2021/05/26 06:32:03;;;;;;;12.80;11.70;;;;;;;13.93;58.68;100433.16;5106084;28;20176;-65
2021/05/26 06:34:28;;;;;;;12.70;11.60;;;;;;;14.01;58.35;100432.25;5114515;27;20266;-64
2021/05/26 06:36:53;;;;;;;12.47;11.37;;;;;;;13.82;59.67;100427.16;5119240;28;20533;-63
2021/05/26 06:39:19;;;;;;;13.77;12.40;;;;;;;13.74;59.95;100435.09;5099137;28;20554;-64
2021/05/26 06:41:44;;;;;;;12.07;11.07;;;;;;;13.39;61.50;100444.06;5103091;28;20449;-64
2021/05/26 06:44:10;;;;;;;12.67;11.57;;;;;;;12.82;62.81;100439.13;5117709;28;20545;-63
2021/05/26 06:46:35;;;;;;;13.50;12.40;;;;;;;13.12;62.78;100438.13;5102094;28;20188;-62
2021/05/26 06:49:00;;;;;;;13.33;12.23;;;;;;;13.22;62.71;100433.69;5115377;28;20214;-63
2021/05/26 06:51:26;;;;;;;11.37;10.40;;;;;;;12.89;63.51;100432.13;5118902;28;20200;-63
2021/05/26 06:53:51;;;;;;;11.40;10.40;;;;;;;13.18;62.68;100438.94;5099777;28;20184;-64
2021/05/26 06:56:16;;;;;;;10.53;9.53;;;;;;;13.49;59.99;100431.81;5098133;28;20534;-64
2021/05/26 06:58:42;;;;;;;10.77;9.80;;;;;;;13.51;60.35;100437.03;5102175;28;20160;-64
2021/05/26 07:01:07;;;;;;;11.90;10.33;;;;;;;13.77;60.57;100427.22;5118239;28;20266;-63
2021/05/26 07:03:32;;;;;;;11.77;10.67;;;;;;;13.40;61.45;100429.25;5118454;28;20551;-64
2021/05/26 07:05:58;;;;;;;11.80;10.73;;;;;;;13.76;60.89;100430.72;5118925;28;20175;-64
2021/05/26 07:08:23;;;;;;;9.93;9.13;;;;;;;13.83;59.82;100428.91;5118347;28;20211;-63
2021/05/26 07:10:49;;;;;;;11.13;10.23;;;;;;;14.46;58.55;100425.66;5118123;28;20191;-63
2021/05/26 07:13:14;;;;;;;10.90;9.87;;;;;;;14.44;58.56;100421.31;5118603;28;20186;-64
2021/05/26 07:15:39;;;;;;;9.03;8.33;;;;;;;16.74;51.40;100407.13;5118275;28;20582;-64
2021/05/26 07:18:06;;;;;;;8.70;7.80;;;;;;;17.91;48.57;100410.56;5118413;28;20172;-63
2021/05/26 07:20:32;;;;;;;8.53;7.83;;;;;;;17.54;49.12;100406.25;5118582;28;20167;-65
2021/05/26 07:22:58;;;;;;;8.07;7.40;;;;;;;17.06;49.38;100412.63;5113414;28;20475;-63
2021/05/26 07:25:24;;;;;;;6.80;6.30;;;;;;;16.14;52.07;100406.56;5118609;27;20501;-62
2021/05/26 07:27:50;;;;;;;6.77;6.27;;;;;;;17.14;49.90;100413.31;5110738;28;20421;-65
2021/05/26 07:30:16;;;;;;;6.63;6.13;;;;;;;17.33;48.61;100416.38;5121941;27;20266;-64
2021/05/26 07:32:41;;;;;;;7.03;6.53;;;;;;;16.13;51.48;100411.84;5128855;27;20392;-64
2021/05/26 07:35:07;;;;;;;7.23;6.63;;;;;;;15.87;52.62;100409.69;5122091;28;20398;-65
2021/05/26 07:37:32;;;;;;;6.83;6.23;;;;;;;16.91;50.50;100406.78;5113063;27;20468;-64
2021/05/26 07:39:58;;;;;;;6.70;6.20;;;;;;;16.31;50.66;100413.25;5138073;27;20182;-65
2021/05/26 07:42:23;;;;;;;9.07;8.17;;;;;;;16.10;52.37;100415.41;5111435;27;20207;-63
2021/05/26 07:44:49;;;;;;;7.93;7.33;;;;;;;15.42;54.59;100415.66;5140893;27;20800;-64
2021/05/26 07:47:15;;;;;;;9.90;9.10;;;;;;;14.89;55.58;100415.53;5119827;27;20232;-64
2021/05/26 07:49:40;;;;;;;8.40;7.70;;;;;;;13.69;59.70;100418.53;5122982;27;20225;-64
2021/05/26 07:52:09;;;;;;;9.83;8.93;;;;;;;13.88;60.70;100419.25;5136572;27;20488;-64
2021/05/26 07:54:34;;;;;;;9.60;8.80;;;;;;;13.79;61.97;100421.97;5124719;27;20190;-64
2021/05/26 07:57:01;;;;;;;11.00;10.00;;;;;;;12.51;66.04;100420.09;5116337;27;20681;-64
2021/05/26 07:59:26;;;;;;;12.80;11.60;;;;;;;13.59;64.29;100416.88;5121606;28;20187;-63
2021/05/26 08:01:52;;;;;;;12.87;11.77;;;;;;;13.52;65.09;100409.94;5108868;27;20832;-64
2021/05/26 08:04:17;;;;;;;13.60;12.30;;;;;;;13.24;65.45;100410.13;5133845;27;20183;-62
2021/05/26 08:06:42;;;;;;;16.73;15.03;;;;;;;13.42;66.44;100404.78;5125082;27;20481;-64
2021/05/26 08:09:08;;;;;;;15.67;14.23;;;;;;;13.99;64.20;100406.06;5125359;27;20200;-63
2021/05/26 08:11:33;;;;;;;15.33;13.87;;;;;;;14.38;63.21;100403.00;5136931;27;20269;-64
2021/05/26 08:13:58;;;;;;;15.70;14.20;;;;;;;13.57;65.00;100402.91;5117757;27;20460;-63
2021/05/26 08:16:24;;;;;;;16.97;15.37;;;;;;;13.59;66.02;100395.94;5116886;27;20193;-65
2021/05/26 08:18:50;;;;;;;17.10;15.50;;;;;;;13.62;65.36;100399.38;5123973;27;20176;-64
2021/05/26 08:21:16;;;;;;;19.57;16.00;;;;;;;13.80;65.11;100394.84;5104521;28;20455;-63
2021/05/26 08:23:41;;;;;;;19.40;17.50;;;;;;;13.23;66.70;100397.91;5137807;27;20459;-64
2021/05/26 08:26:11;;;;;;;19.40;17.57;;;;;;;12.84;67.65;100397.25;5117529;27;20233;-64
2021/05/26 08:28:36;;;;;;;20.40;18.30;;;;;;;12.55;68.48;100387.81;5131315;27;20221;-62
2021/05/26 08:31:02;;;;;;;23.00;20.67;;;;;;;12.75;68.07;100393.81;5124573;27;20886;-63
2021/05/26 08:33:27;;;;;;;23.83;18.80;;;;;;;12.83;67.25;100387.66;5134622;27;20277;-63
2021/05/26 08:35:53;;;;;;;19.53;17.53;;;;;;;12.88;66.89;100391.13;5112522;27;20225;-63
2021/05/26 08:38:18;;;;;;;19.63;17.63;;;;;;;13.11;65.92;100393.63;5108409;27;20468;-64
2021/05/26 08:40:43;;;;;;;20.10;18.10;;;;;;;13.54;64.95;100389.84;5122018;27;20223;-64
2021/05/26 08:43:09;;;;;;;19.57;17.67;;;;;;;13.39;65.00;100378.63;5109622;27;20192;-65
2021/05/26 08:45:35;;;;;;;20.83;18.63;;;;;;;14.34;63.36;100381.19;5132991;27;20582;-63
2021/05/26 08:48:04;;;;;;;19.70;17.80;;;;;;;15.32;61.42;100376.38;5119088;28;20447;-63
2021/05/26 08:50:29;;;;;;;16.40;14.87;;;;;;;15.28;59.37;100365.97;5101218;27;20251;-63
2021/05/26 08:52:55;;;;;;;15.77;14.20;;;;;;;14.54;59.79;100372.22;5099505;28;20416;-63
2021/05/26 08:55:20;;;;;;;15.73;14.13;;;;;;;14.99;58.95;100370.78;5102048;28;20277;-64
2021/05/26 08:57:45;;;;;;;16.23;14.67;;;;;;;15.80;57.33;100380.00;5099975;28;20443;-64
2021/05/26 09:00:11;;;;;;;14.87;13.43;;;;;;;15.64;56.32;100368.84;5099770;28;20194;-64
2021/05/26 09:02:37;;;;;;;14.00;12.80;;;;;;;15.38;56.87;100357.03;5099992;28;20191;-64
2021/05/26 09:05:04;;;;;;;13.73;12.30;;;;;;;15.83;55.83;100357.16;5099894;28;20247;-64
2021/05/26 09:07:32;;;;;;;15.37;13.80;;;;;;;14.66;59.54;100361.59;5110068;27;20222;-64
2021/05/26 09:10:05;;;;;;;14.83;13.53;;;;;;;14.28;60.30;100362.91;5106854;28;20539;-64
2021/05/26 09:12:37;;;;;;;15.47;14.07;;;;;;;14.18;60.45;100369.16;5099694;28;20414;-64
2021/05/26 09:15:04;;;;;;;14.27;12.97;;;;;;;13.74;60.99;100374.81;5120151;27;20452;-64
2021/05/26 09:17:30;;;;;;;16.00;13.37;;;;;;;13.52;61.15;100370.66;5119859;28;20511;-63
2021/05/26 09:20:24;;;;;;;14.53;12.63;;;;;;;13.67;60.68;100375.78;5120455;28;20424;-64
2021/05/26 09:22:59;;;;;;;12.10;10.90;;;;;;;13.40;58.97;100363.78;5105082;28;20425;-64
2021/05/26 09:25:25;;;;;;;10.97;10.00;;;;;;;13.76;58.81;100372.19;5105686;28;20461;-64
2021/05/26 09:28:21;;;;;;;10.67;9.77;;;;;;;14.70;55.64;100362.44;5119746;28;20420;-63
2021/05/26 09:31:19;;;;;;;11.27;9.33;;;;;;;15.09;54.79;100362.75;5119742;28;20429;-64
2021/05/26 09:33:46;;;;;;;11.77;10.60;;;;;;;15.01;55.33;100357.63;5096448;28;20430;-64
2021/05/26 09:36:16;;;;;;;11.87;10.63;;;;;;;15.05;54.79;100355.81;5119826;28;20392;-64
2021/05/26 09:38:44;;;;;;;11.47;10.47;;;;;;;14.90;56.09;100365.66;5119846;28;20392;-64
2021/05/26 09:41:14;;;;;;;10.33;9.30;;;;;;;14.54;56.53;100359.09;5119751;28;20388;-64
2021/05/26 09:43:43;;;;;;;12.27;10.50;;;;;;;14.80;55.62;100359.66;5120144;28;20395;-64
2021/05/26 09:46:19;;;;;;;11.40;10.20;;;;;;;13.87;58.16;100364.22;5119731;28;20422;-64
2021/05/26 09:48:59;;;;;;;10.27;9.27;;;;;;;13.69;58.57;100365.28;5118859;28;20444;-64
2021/05/26 09:51:28;;;;;;;11.97;10.77;;;;;;;13.25;63.47;100373.47;5118368;28;20736;-63
2021/05/26 09:54:10;;;;;;;12.70;11.10;;;;;;;12.95;65.21;100374.53;5119369;28;20384;-63
2021/05/26 09:56:35;;;;;;;13.47;12.17;;;;;;;13.75;65.09;100384.44;5119483;28;20483;-65
2021/05/26 09:59:02;;;;;;;12.77;11.40;;;;;;;14.79;60.53;100363.16;5119489;28;20487;-65
2021/05/26 10:01:28;;;;;;;11.93;10.93;;;;;;;16.57;56.76;100352.19;5119522;28;20179;-64
2021/05/26 10:03:54;;;;;;;11.33;10.33;;;;;;;17.48;53.38;100352.78;5118659;28;20876;-64
2021/05/26 10:06:23;;;;;;;11.00;9.90;;;;;;;17.90;51.38;100351.69;5099735;28;20420;-64
2021/05/26 10:08:49;;;;;;;10.33;9.33;;;;;;;17.57;52.38;100345.53;5118398;27;20195;-65
2021/05/26 10:11:15;;;;;;;11.07;9.97;;;;;;;16.95;53.94;100357.56;5115426;28;20519;-65
2021/05/26 10:13:41;;;;;;;10.67;9.57;;;;;;;16.69;53.61;100361.59;5097428;28;20228;-63
2021/05/26 10:16:07;;;;;;;10.30;9.40;;;;;;;16.10;54.48;100352.28;5102033;28;20837;-64
2021/05/26 10:18:34;;;;;;;9.77;9.00;;;;;;;16.50;53.77;100343.56;5104756;28;20418;-64
2021/05/26 10:20:59;;;;;;;9.03;7.87;;;;;;;16.81;51.45;100349.94;5110364;28;20235;-65
2021/05/26 10:23:24;;;;;;;8.57;7.83;;;;;;;17.48;48.36;100351.88;5099058;28;20457;-64
2021/05/26 10:25:53;;;;;;;7.83;7.13;;;;;;;18.85;46.65;100337.53;5107472;28;20541;-66
2021/05/26 10:28:33;;;;;;;7.53;6.93;;;;;;;18.47;47.06;100339.56;5118859;27;20420;-68
2021/05/26 10:31:03;;;;;;;6.63;6.03;;;;;;;17.50;48.18;100345.69;5105736;28;20445;-65
2021/05/26 10:33:44;;;;;;;6.33;5.77;;;;;;;17.63;48.88;100340.09;5104340;28;20570;-65
2021/05/26 10:36:11;;;;;;;7.97;5.73;;;;;;;17.27;47.55;100334.88;5117717;28;20428;-65
2021/05/26 10:39:00;;;;;;;7.60;5.67;;;;;;;16.80;48.51;100328.00;5098474;28;20680;-65
2021/05/26 10:41:48;;;;;;;6.30;5.80;;;;;;;17.83;48.36;100323.75;5099638;28;20445;-65
2021/05/26 10:44:13;;;;;;;5.93;5.43;;;;;;;17.42;47.45;100328.34;5097965;28;20741;-64
2021/05/26 10:46:41;;;;;;;5.83;5.33;;;;;;;16.90;47.46;100312.91;5109835;28;20524;-66
2021/05/26 10:49:10;;;;;;;8.23;5.40;;;;;;;17.02;47.10;100331.94;5100905;28;20239;-65
2021/05/26 10:51:51;;;;;;;8.83;5.77;;;;;;;17.43;46.90;100327.44;5105939;28;20868;-65
2021/05/26 10:54:55;;;;;;;6.00;5.20;;;;;;;17.30;48.21;100333.00;5097771;28;20429;-65
2021/05/26 10:57:20;;;;;;;6.33;5.73;;;;;;;17.12;47.83;100317.66;5084230;28;20438;-65
2021/05/26 11:00:21;;;;;;;6.10;5.50;;;;;;;17.19;47.65;100319.25;5093277;28;20456;-65
2021/05/26 11:03:43;;;;;;;5.90;5.30;;;;;;;17.55;45.76;100307.78;5097180;28;20294;-66
2021/05/26 11:06:12;;;;;;;5.03;4.60;;;;;;;17.17;44.71;100308.75;5070238;28;20425;-65
2021/05/26 11:11:29;;;;;;;6.23;5.10;;;;;;;16.12;47.89;100315.44;5097894;28;20384;-66
2021/05/26 11:14:14;;;;;;;5.70;5.20;;;;;;;16.21;49.73;100304.75;5097104;28;20423;-65
2021/05/26 11:16:49;;;;;;;5.03;4.63;;;;;;;15.05;49.70;100327.81;5103746;28;20746;-65
2021/05/26 11:19:21;;;;;;;6.37;5.70;;;;;;;15.36;51.00;100343.06;5096993;28;20443;-65